Time;durP1;ratioP1;P1;durP2;ratioP2;P2;SDS_P1;SDS_P2;PMS_P1;PMS_P2;Temp;Humidity;BMP_temperature;BMP_pressure;BME280_temperature;BME280_humidity;BME280_pressure;Samples;Min_cycle;Max_cycle;Signal;HPM_P1;HPM_P2
2023/03/12 00:04:27;;;;;;;9.60;7.40;;;;;;;-1.32;79.45;98960.67;217901;1261;139395;-67
2023/03/12 00:09:33;;;;;;;11.00;6.80;;;;;;;-1.34;79.53;98966.16;218573;1260;139435;-67
2023/03/12 00:14:37;;;;;;;16.70;7.50;;;;;;;-1.35;79.47;98958.29;217653;1257;139747;-68
2023/03/12 00:19:40;;;;;;;7.40;4.70;;;;;;;-1.40;79.33;98959.30;217827;1257;139434;-71
2023/03/12 00:24:48;;;;;;;17.90;6.50;;;;;;;-1.46;79.69;98962.27;217531;1262;138962;-70
2023/03/12 00:29:52;;;;;;;8.10;6.00;;;;;;;-1.44;79.70;98956.33;218270;1257;140574;-68
2023/03/12 00:34:56;;;;;;;12.20;8.00;;;;;;;-1.41;79.73;98956.02;217820;1260;140796;-67
2023/03/12 00:40:00;;;;;;;14.30;7.50;;;;;;;-1.43;79.78;98952.20;217960;1258;139523;-67
2023/03/12 00:45:03;;;;;;;15.70;7.90;;;;;;;-1.46;79.82;98948.40;218891;1260;139666;-69
2023/03/12 00:50:07;;;;;;;14.00;8.10;;;;;;;-1.46;79.91;98949.29;218389;1256;140162;-69
2023/03/12 00:55:09;;;;;;;11.00;7.60;;;;;;;-1.45;79.70;98946.83;218108;1257;142776;-66
2023/03/12 01:00:13;;;;;;;13.50;8.80;;;;;;;-1.45;79.91;98947.55;218691;1260;139850;-68
2023/03/12 01:05:17;;;;;;;11.60;6.70;;;;;;;-1.51;79.84;98952.61;218281;1256;139405;-71
2023/03/12 01:10:21;;;;;;;15.00;8.80;;;;;;;-1.53;79.77;98951.61;218566;1257;140564;-68
2023/03/12 01:15:24;;;;;;;10.30;5.90;;;;;;;-1.52;79.86;98951.13;219809;1257;140359;-67
2023/03/12 01:20:29;;;;;;;9.70;7.70;;;;;;;-1.54;79.79;98948.06;219291;1258;139635;-67
2023/03/12 01:25:33;;;;;;;14.50;8.90;;;;;;;-1.55;80.02;98950.54;218327;1256;140031;-67
2023/03/12 01:30:36;;;;;;;18.60;14.90;;;;;;;-1.58;79.89;98945.43;220249;1257;140755;-67
2023/03/12 01:35:40;;;;;;;12.60;9.20;;;;;;;-1.56;80.12;98933.77;220057;1257;140406;-67
2023/03/12 01:40:44;;;;;;;13.20;8.70;;;;;;;-1.55;80.05;98930.27;220258;1257;140464;-66
2023/03/12 01:46:23;;;;;;;14.30;9.10;;;;;;;-1.56;80.18;98928.17;218908;1257;140913;-69
2023/03/12 01:51:48;;;;;;;13.60;8.60;;;;;;;-1.58;80.19;98930.40;218390;1257;140283;-69
2023/03/12 01:56:53;;;;;;;9.50;7.80;;;;;;;-1.62;80.30;98931.96;218348;1260;140009;-67
2023/03/12 02:01:57;;;;;;;14.90;9.00;;;;;;;-1.64;80.43;98933.45;217472;1257;140877;-64
2023/03/12 02:07:02;;;;;;;13.20;8.40;;;;;;;-1.65;80.69;98935.05;219430;1257;141501;-67
2023/03/12 02:12:07;;;;;;;12.60;8.10;;;;;;;-1.67;80.54;98935.02;217723;1257;140262;-66
2023/03/12 02:17:11;;;;;;;13.60;8.20;;;;;;;-1.72;80.76;98933.93;218297;1257;141442;-67
2023/03/12 02:22:15;;;;;;;18.40;10.00;;;;;;;-1.76;80.73;98933.21;217958;1257;141657;-69
2023/03/12 02:27:22;;;;;;;14.90;9.60;;;;;;;-1.80;80.94;98940.42;217768;1257;140321;-71
2023/03/12 02:32:30;;;;;;;9.90;7.90;;;;;;;-1.82;80.89;98946.29;218157;1258;140068;-69
2023/03/12 02:37:33;;;;;;;15.70;8.10;;;;;;;-1.85;81.19;98946.75;217970;1256;140940;-68
2023/03/12 02:42:38;;;;;;;16.60;9.10;;;;;;;-1.82;81.37;98956.21;217729;1258;140687;-71
2023/03/12 02:47:41;;;;;;;13.50;7.70;;;;;;;-1.77;81.57;98961.17;218325;1257;141008;-73
2023/03/12 02:52:44;;;;;;;9.70;5.80;;;;;;;-1.71;81.69;98969.16;218137;1256;140042;-70
2023/03/12 02:57:48;;;;;;;10.50;6.50;;;;;;;-1.62;81.74;98968.06;217554;1257;142180;-69
2023/03/12 03:02:52;;;;;;;11.10;6.60;;;;;;;-1.55;81.85;98977.64;218485;1257;140967;-66
2023/03/12 03:07:56;;;;;;;8.90;6.40;;;;;;;-1.47;81.93;98978.28;217667;1257;140262;-66
2023/03/12 03:12:59;;;;;;;10.60;6.30;;;;;;;-1.39;81.73;98987.46;218856;1257;141163;-68
2023/03/12 03:18:02;;;;;;;6.30;4.10;;;;;;;-1.33;81.85;98990.02;218148;1257;140148;-67
2023/03/12 03:23:06;;;;;;;11.80;5.50;;;;;;;-1.25;81.81;98994.61;219227;1257;141875;-68
2023/03/12 03:28:10;;;;;;;7.70;5.60;;;;;;;-1.20;81.83;99001.96;220057;1257;140792;-67
2023/03/12 03:33:14;;;;;;;10.90;6.60;;;;;;;-1.15;81.62;99005.42;219013;1256;141052;-67
2023/03/12 03:38:16;;;;;;;10.50;6.00;;;;;;;-1.14;81.58;99002.80;220188;1256;141848;-67
2023/03/12 03:43:21;;;;;;;12.40;7.40;;;;;;;-1.11;81.57;99000.75;219943;1256;140518;-67
2023/03/12 03:48:25;;;;;;;11.50;4.90;;;;;;;-1.05;81.38;99000.96;219129;1256;140115;-66
2023/03/12 03:53:27;;;;;;;11.20;6.30;;;;;;;-1.00;81.58;99003.48;219494;1256;152689;-66
2023/03/12 03:58:32;;;;;;;5.40;4.10;;;;;;;-0.97;81.24;99008.38;219312;1256;140233;-66
2023/03/12 04:03:35;;;;;;;12.30;6.00;;;;;;;-0.96;81.33;99001.30;219191;1256;141218;-65
2023/03/12 04:08:39;;;;;;;11.50;6.60;;;;;;;-0.96;81.44;99002.94;218353;1256;144493;-66
2023/03/12 04:13:43;;;;;;;10.40;6.60;;;;;;;-0.97;81.26;99004.10;218413;1256;141301;-65
2023/03/12 04:18:45;;;;;;;14.90;6.40;;;;;;;-0.98;81.44;99002.92;218010;1257;462471;-64
2023/03/12 04:23:49;;;;;;;9.20;6.10;;;;;;;-0.97;81.46;99006.19;218541;1256;139897;-63
2023/03/12 04:28:52;;;;;;;10.10;6.40;;;;;;;-0.98;81.34;99008.52;218739;1256;140112;-63
2023/03/12 04:33:54;;;;;;;10.00;6.80;;;;;;;-0.99;81.51;99009.48;217973;1257;141101;-67
2023/03/12 04:38:57;;;;;;;6.80;5.10;;;;;;;-0.99;81.36;99013.48;217852;1256;140985;-65
2023/03/12 04:44:01;;;;;;;9.50;5.80;;;;;;;-1.03;81.53;99011.85;218020;1256;142304;-66
2023/03/12 04:49:04;;;;;;;9.50;5.80;;;;;;;-1.05;81.58;99016.41;218123;1257;141311;-67
2023/03/12 04:54:08;;;;;;;8.70;4.70;;;;;;;-1.07;81.61;99022.13;218261;1257;140706;-66
2023/03/12 04:59:11;;;;;;;7.00;4.90;;;;;;;-1.09;81.56;99027.23;218553;1256;141073;-67
2023/03/12 05:04:14;;;;;;;8.70;6.10;;;;;;;-1.08;81.59;99032.46;217712;1257;140151;-69
2023/03/12 05:09:17;;;;;;;5.80;4.80;;;;;;;-1.05;81.58;99030.29;217950;1259;140005;-69
2023/03/12 05:14:19;;;;;;;9.60;3.90;;;;;;;-1.04;81.67;99031.29;220450;1256;140846;-69
2023/03/12 05:19:23;;;;;;;11.10;6.10;;;;;;;-1.00;81.27;99040.28;218304;1257;142636;-68
2023/03/12 05:24:27;;;;;;;8.10;5.20;;;;;;;-0.95;81.56;99053.84;220390;1256;141756;-69
2023/03/12 05:29:34;;;;;;;7.90;4.90;;;;;;;-0.91;81.22;99061.09;218893;1260;141983;-69
2023/03/12 05:34:35;;;;;;;9.20;5.40;;;;;;;-0.87;81.54;99073.27;219034;1257;141541;-69
2023/03/12 05:39:38;;;;;;;7.40;5.30;;;;;;;-0.84;81.32;99076.48;218179;1257;140675;-67
2023/03/12 05:44:40;;;;;;;4.60;4.20;;;;;;;-0.82;81.19;99089.13;219977;1256;140120;-67
2023/03/12 05:49:43;;;;;;;5.60;4.60;;;;;;;-0.81;81.29;99098.89;218856;1256;140127;-67
2023/03/12 05:54:45;;;;;;;4.50;3.70;;;;;;;-0.77;81.08;99102.98;218058;1256;142505;-67
2023/03/12 05:59:47;;;;;;;8.30;5.10;;;;;;;-0.75;81.11;99110.79;217628;1257;140097;-67
2023/03/12 06:04:49;;;;;;;7.30;5.30;;;;;;;-0.75;80.95;99116.91;218379;1256;139983;-66
2023/03/12 06:09:52;;;;;;;9.00;5.40;;;;;;;-0.72;81.16;99128.06;217910;1256;141924;-68
2023/03/12 06:14:59;;;;;;;4.60;4.20;;;;;;;-0.71;80.95;99130.19;217489;1257;141711;-68
2023/03/12 06:20:02;;;;;;;6.10;5.00;;;;;;;-0.56;81.06;99129.52;218028;1260;140978;-67
2023/03/12 06:25:05;;;;;;;8.90;4.30;;;;;;;-0.31;80.83;99138.70;217390;1256;139595;-67
2023/03/12 06:30:09;;;;;;;7.20;4.60;;;;;;;-0.20;80.69;99141.77;217754;1256;140512;-68
2023/03/12 06:35:12;;;;;;;7.50;5.20;;;;;;;-0.05;80.59;99142.79;217442;1257;139818;-67
2023/03/12 06:40:16;;;;;;;4.10;3.70;;;;;;;0.01;80.27;99135.04;217983;1257;140321;-69
2023/03/12 06:45:18;;;;;;;7.40;4.50;;;;;;;0.06;80.21;99147.31;217865;1256;140354;-66
2023/03/12 06:50:20;;;;;;;13.30;4.40;;;;;;;0.07;79.91;99154.63;218622;1257;141443;-68
2023/03/12 06:55:22;;;;;;;4.80;4.30;;;;;;;0.03;80.01;99167.67;218290;1257;139898;-68
2023/03/12 07:00:26;;;;;;;5.10;3.70;;;;;;;-0.01;80.11;99171.80;218647;1257;141285;-68
2023/03/12 07:05:31;;;;;;;5.40;4.40;;;;;;;0.05;80.13;99185.37;218318;1256;140677;-65
2023/03/12 07:10:35;;;;;;;5.80;4.50;;;;;;;0.14;79.59;99191.80;218285;1256;139767;-64
2023/03/12 07:15:41;;;;;;;8.90;4.60;;;;;;;0.24;79.68;99193.83;219622;1256;140529;-66
2023/03/12 07:20:46;;;;;;;4.90;4.30;;;;;;;0.40;79.48;99192.57;219738;1256;139999;-64
2023/03/12 07:25:51;;;;;;;4.90;4.10;;;;;;;0.61;79.16;99198.56;219164;1256;140053;-65
2023/03/12 07:31:03;;;;;;;3.60;3.20;;;;;;;1.37;79.45;99196.11;220152;1256;140118;-70
2023/03/12 07:36:07;;;;;;;3.60;3.00;;;;;;;2.35;78.60;99192.20;220332;1256;140377;-70
2023/03/12 07:41:11;;;;;;;4.20;2.70;;;;;;;3.68;77.96;99186.71;218808;1256;141136;-70
2023/03/12 07:46:16;;;;;;;4.10;3.80;;;;;;;4.70;76.56;99198.27;220452;1256;142425;-71
2023/03/12 07:51:19;;;;;;;2.50;2.30;;;;;;;4.95;75.59;99215.20;218619;1256;139394;-72
2023/03/12 07:56:21;;;;;;;8.20;4.10;;;;;;;5.46;74.80;99217.45;218869;1256;140058;-71
2023/03/12 08:01:30;;;;;;;3.90;2.80;;;;;;;5.14;72.41;99227.58;219040;1259;139792;-69
2023/03/12 08:06:34;;;;;;;3.90;2.40;;;;;;;4.73;72.31;99229.72;217962;1256;139986;-69
2023/03/12 08:11:36;;;;;;;12.40;4.20;;;;;;;5.03;72.44;99231.42;217985;1256;139950;-69
2023/03/12 08:16:39;;;;;;;3.70;1.90;;;;;;;5.22;71.96;99237.69;218219;1259;140200;-69
2023/03/12 08:21:42;;;;;;;4.40;2.10;;;;;;;4.86;70.44;99237.79;217706;1257;138793;-69
2023/03/12 08:26:45;;;;;;;3.80;1.60;;;;;;;4.60;70.10;99244.52;218357;1256;139983;-68
2023/03/12 08:31:48;;;;;;;2.60;1.20;;;;;;;4.32;69.76;99253.55;217551;1256;138838;-68
2023/03/12 08:37:06;;;;;;;3.70;1.50;;;;;;;4.26;69.86;99257.55;217554;1256;140936;-69
2023/03/12 08:42:09;;;;;;;3.00;1.80;;;;;;;4.27;69.33;99259.32;217637;1256;139165;-68
2023/03/12 08:47:12;;;;;;;3.40;1.90;;;;;;;4.22;69.35;99268.55;217858;1256;139578;-69
2023/03/12 08:52:15;;;;;;;3.90;1.90;;;;;;;4.28;68.91;99269.10;218625;1256;141360;-70
2023/03/12 08:57:18;;;;;;;5.50;2.70;;;;;;;4.46;68.97;99265.74;217758;1257;138765;-69
2023/03/12 09:02:21;;;;;;;4.50;2.30;;;;;;;4.61;68.26;99270.25;218819;1256;138998;-70
2023/03/12 09:07:24;;;;;;;1.20;1.10;;;;;;;4.67;68.14;99277.83;219119;1256;139056;-72
2023/03/12 09:12:26;;;;;;;4.90;2.40;;;;;;;4.86;67.73;99274.77;217875;1256;140377;-69
2023/03/12 09:17:30;;;;;;;1.80;1.40;;;;;;;4.87;66.77;99276.88;217937;1257;139646;-69
2023/03/12 09:22:35;;;;;;;3.30;2.20;;;;;;;4.63;66.37;99281.89;217616;1256;138944;-70
2023/03/12 09:27:44;;;;;;;3.00;2.30;;;;;;;4.46;66.27;99293.36;217803;1259;139101;-69
2023/03/12 09:32:47;;;;;;;4.30;1.70;;;;;;;4.32;66.18;99287.77;220405;1256;139055;-69
2023/03/12 09:37:50;;;;;;;2.50;2.10;;;;;;;4.68;66.32;99286.08;218505;1256;139431;-70
2023/03/12 09:42:59;;;;;;;5.00;1.20;;;;;;;4.82;65.89;99292.73;217789;1259;138830;-67
2023/03/12 09:48:05;;;;;;;4.50;1.70;;;;;;;5.08;65.64;99301.18;219413;1256;139558;-72
2023/03/12 09:53:47;;;;;;;3.00;1.50;;;;;;;5.13;65.26;99303.48;217500;1257;139019;-71
2023/03/12 09:58:53;;;;;;;3.60;1.70;;;;;;;5.20;64.61;99305.10;217591;1257;139183;-74
2023/03/12 10:04:22;;;;;;;3.10;1.40;;;;;;;5.37;64.89;99304.54;218161;1259;140427;-70
2023/03/12 10:09:49;;;;;;;1.60;1.50;;;;;;;5.67;64.27;99314.98;217440;1257;139141;-70
2023/03/12 10:15:31;;;;;;;4.00;3.00;;;;;;;5.86;63.99;99308.71;217417;1260;140269;-77
2023/03/12 10:20:33;;;;;;;2.00;1.30;;;;;;;5.99;63.48;99311.38;218184;1256;139405;-71
2023/03/12 10:25:58;;;;;;;4.90;2.20;;;;;;;5.90;63.18;99319.89;217377;1256;139978;-70
2023/03/12 10:31:05;;;;;;;2.30;1.40;;;;;;;6.12;63.12;99317.24;217834;1256;139343;-67
2023/03/12 10:36:17;;;;;;;4.60;1.70;;;;;;;6.39;62.99;99319.95;217523;1260;139187;-67
2023/03/12 10:41:25;;;;;;;5.40;1.90;;;;;;;6.69;62.96;99314.80;217876;1256;139000;-70
2023/03/12 10:46:50;;;;;;;3.80;2.20;;;;;;;6.85;62.33;99320.10;217362;1256;139038;-68
2023/03/12 10:52:22;;;;;;;2.10;1.50;;;;;;;6.75;61.36;99326.27;218795;1256;141530;-71
2023/03/12 10:57:41;;;;;;;2.10;1.40;;;;;;;6.39;61.18;99330.98;217416;1257;139553;-76
2023/03/12 11:02:45;;;;;;;4.80;2.30;;;;;;;5.92;60.61;99327.63;217299;1260;139427;-69
2023/03/12 11:07:47;;;;;;;3.20;2.00;;;;;;;5.77;60.82;99319.44;217337;1257;139493;-74
2023/03/12 11:12:55;;;;;;;3.20;2.10;;;;;;;5.75;60.63;99324.57;217643;1259;139184;-70
2023/03/12 11:18:26;;;;;;;1.60;1.50;;;;;;;5.93;61.21;99320.80;217370;1257;140453;-70
2023/03/12 11:23:30;;;;;;;9.70;2.70;;;;;;;6.00;61.18;99321.04;217317;1259;139666;-69
2023/03/12 11:28:38;;;;;;;3.20;2.50;;;;;;;5.96;61.06;99321.81;218288;1256;138653;-69
2023/03/12 11:33:41;;;;;;;5.70;2.00;;;;;;;5.81;60.66;99320.05;218703;1259;138908;-70
2023/03/12 11:39:01;;;;;;;3.80;1.70;;;;;;;5.85;61.01;99325.19;220059;1256;138868;-70
2023/03/12 11:44:15;;;;;;;3.30;1.80;;;;;;;5.88;60.64;99321.89;220394;1256;139056;-70
2023/03/12 11:49:36;;;;;;;10.00;2.10;;;;;;;5.89;60.38;99314.72;220427;1256;140097;-70
2023/03/12 11:55:15;;;;;;;4.50;1.70;;;;;;;5.85;60.00;99320.92;218867;1257;139714;-70
2023/03/12 12:00:31;;;;;;;1.60;1.40;;;;;;;6.05;60.25;99318.29;217635;1257;140329;-69
2023/03/12 12:05:42;;;;;;;2.40;1.60;;;;;;;6.12;60.12;99319.49;219087;1256;140641;-70
2023/03/12 12:11:03;;;;;;;4.30;2.00;;;;;;;6.41;60.21;99320.38;217705;1257;139955;-70
2023/03/12 12:16:22;;;;;;;4.00;1.90;;;;;;;6.74;60.61;99318.14;217556;1257;139448;-69
2023/03/12 12:21:48;;;;;;;3.90;1.60;;;;;;;6.96;59.95;99319.73;217410;1256;139448;-69
2023/03/12 12:27:05;;;;;;;6.10;1.90;;;;;;;6.79;59.43;99321.72;217507;1259;140024;-69
2023/03/12 12:32:16;;;;;;;6.60;2.00;;;;;;;6.61;59.15;99330.26;217893;1257;139748;-70
2023/03/12 12:37:42;;;;;;;2.50;2.30;;;;;;;6.61;59.45;99333.80;217542;1259;140712;-70
2023/03/12 12:43:16;;;;;;;2.60;1.70;;;;;;;6.53;59.05;99333.96;218595;1257;139697;-70
2023/03/12 12:48:31;;;;;;;4.40;2.00;;;;;;;6.38;59.15;99340.29;218092;1257;140046;-69
2023/03/12 12:53:48;;;;;;;2.40;1.60;;;;;;;6.02;58.47;99348.66;217523;1259;139859;-70
2023/03/12 12:58:58;;;;;;;5.90;2.20;;;;;;;5.81;58.21;99345.29;217589;1259;140600;-69
2023/03/12 13:04:26;;;;;;;5.20;2.30;;;;;;;5.94;59.15;99348.23;217732;1258;139237;-70
2023/03/12 13:09:44;;;;;;;3.50;1.70;;;;;;;6.21;59.17;99342.08;217803;1260;233773;-68
2023/03/12 13:14:49;;;;;;;9.60;2.50;;;;;;;6.30;58.58;99343.13;217466;1257;139117;-68
2023/03/12 13:19:57;;;;;;;2.60;2.00;;;;;;;6.27;58.34;99340.09;218689;1257;151952;-70
2023/03/12 13:25:15;;;;;;;5.40;1.90;;;;;;;6.31;58.51;99337.48;217378;1259;140958;-69
2023/03/12 13:30:33;;;;;;;5.40;2.40;;;;;;;6.25;58.25;99340.51;218628;1257;138875;-69
2023/03/12 13:35:37;;;;;;;4.10;2.70;;;;;;;6.22;58.00;99350.42;217643;1257;139273;-69
2023/03/12 13:41:06;;;;;;;4.00;1.90;;;;;;;6.19;58.18;99356.92;217474;1257;139341;-69
2023/03/12 13:46:14;;;;;;;4.30;2.00;;;;;;;6.01;57.58;99364.80;218102;1257;139999;-70
2023/03/12 13:51:20;;;;;;;4.50;2.20;;;;;;;5.88;57.53;99369.37;218449;1259;139646;-69
2023/03/12 13:56:31;;;;;;;4.70;2.30;;;;;;;5.76;57.57;99370.70;217393;1259;140327;-69
2023/03/12 14:01:41;;;;;;;2.00;1.70;;;;;;;5.44;57.50;99371.88;219663;1257;141197;-69
2023/03/12 14:07:22;;;;;;;6.70;2.50;;;;;;;5.23;57.82;99376.60;217690;1257;139654;-70
2023/03/12 14:12:36;;;;;;;7.10;1.80;;;;;;;5.14;58.22;99373.48;218391;1259;139252;-70
2023/03/12 14:17:45;;;;;;;3.60;2.70;;;;;;;5.10;58.29;99374.90;217549;1259;138904;-69
2023/03/12 14:22:57;;;;;;;4.40;2.00;;;;;;;5.08;58.50;99382.63;217688;1257;139601;-69
2023/03/12 14:28:01;;;;;;;3.00;2.10;;;;;;;5.07;58.45;99389.38;217472;1259;141113;-69
2023/03/12 14:33:07;;;;;;;3.40;2.00;;;;;;;5.00;58.85;99387.11;218211;1257;140259;-69
2023/03/12 14:38:31;;;;;;;3.90;2.20;;;;;;;5.02;58.84;99387.68;217536;1256;139563;-68
2023/03/12 14:43:45;;;;;;;6.00;2.30;;;;;;;5.04;59.40;99391.13;218345;1259;139985;-71
2023/03/12 14:48:57;;;;;;;7.70;2.90;;;;;;;5.01;59.29;99397.68;217921;1257;139002;-72
2023/03/12 14:54:04;;;;;;;10.30;3.00;;;;;;;4.88;58.97;99393.20;218233;1257;140040;-68
2023/03/12 14:59:28;;;;;;;6.30;3.20;;;;;;;4.75;59.18;99389.23;217850;1260;139905;-69
2023/03/12 15:04:33;;;;;;;7.80;2.80;;;;;;;4.59;59.10;99382.42;217576;1257;139768;-69
2023/03/12 15:09:42;;;;;;;6.70;2.40;;;;;;;4.48;59.07;99388.38;217725;1257;234586;-69
2023/03/12 15:14:47;;;;;;;9.20;2.90;;;;;;;4.41;59.26;99391.01;218021;1257;139584;-69
2023/03/12 15:19:53;;;;;;;4.80;3.40;;;;;;;4.35;59.36;99390.23;218665;1257;139330;-69
2023/03/12 15:25:02;;;;;;;7.00;2.80;;;;;;;4.21;59.21;99383.09;218278;1257;139527;-68
2023/03/12 15:30:26;;;;;;;7.60;3.10;;;;;;;4.12;59.24;99386.00;219389;1260;139922;-69
2023/03/12 15:35:30;;;;;;;4.50;2.20;;;;;;;4.04;59.33;99387.44;218471;1257;139308;-70
2023/03/12 15:40:32;;;;;;;4.20;2.70;;;;;;;3.95;59.58;99388.45;220565;1257;140227;-70
2023/03/12 15:45:37;;;;;;;2.70;1.40;;;;;;;3.88;59.69;99389.74;220210;1257;139244;-68
2023/03/12 15:50:43;;;;;;;5.60;3.00;;;;;;;3.87;59.89;99385.55;217626;1257;138925;-69
2023/03/12 15:56:23;;;;;;;4.50;2.60;;;;;;;3.87;60.24;99384.05;218818;1257;139233;-69
2023/03/12 16:01:27;;;;;;;11.20;4.00;;;;;;;3.84;60.35;99379.99;218393;1260;139760;-68
2023/03/12 16:06:31;;;;;;;6.90;3.20;;;;;;;3.77;60.63;99376.96;217513;1257;139486;-69
2023/03/12 16:11:37;;;;;;;10.00;3.20;;;;;;;3.69;61.01;99379.43;218913;1257;139577;-69
2023/03/12 16:16:39;;;;;;;6.50;3.20;;;;;;;3.61;61.28;99376.09;218166;1259;495000;-68
2023/03/12 16:21:43;;;;;;;6.10;3.50;;;;;;;3.54;61.56;99378.98;218913;1257;141301;-69
2023/03/12 16:26:55;;;;;;;6.90;3.10;;;;;;;3.46;61.85;99389.90;219111;1257;139275;-70
2023/03/12 16:31:57;;;;;;;5.50;3.00;;;;;;;3.39;61.99;99399.85;217611;1257;139859;-69
2023/03/12 16:37:00;;;;;;;5.10;2.70;;;;;;;3.29;62.17;99401.46;217948;1260;139094;-69
2023/03/12 16:42:11;;;;;;;6.90;3.60;;;;;;;3.22;62.49;99398.55;217638;1257;139734;-69
2023/03/12 16:47:13;;;;;;;8.40;4.20;;;;;;;3.15;62.74;99400.81;218021;1257;139050;-70
2023/03/12 16:52:21;;;;;;;4.70;3.30;;;;;;;3.08;62.97;99405.23;217722;1257;140264;-68
2023/03/12 16:57:35;;;;;;;9.30;3.30;;;;;;;2.99;63.44;99405.05;217729;1257;138984;-68
2023/03/12 17:02:38;;;;;;;7.30;3.80;;;;;;;2.92;63.61;99406.86;217772;1257;140861;-69
2023/03/12 17:07:42;;;;;;;6.30;3.50;;;;;;;2.86;63.85;99404.27;219165;1256;140726;-69
2023/03/12 17:12:47;;;;;;;5.50;3.30;;;;;;;2.77;64.34;99402.51;219370;1257;139427;-69
2023/03/12 17:17:51;;;;;;;4.80;3.20;;;;;;;2.68;64.66;99405.65;219242;1256;139255;-68
2023/03/12 17:22:53;;;;;;;7.50;3.40;;;;;;;2.58;64.74;99405.89;218367;1257;140539;-68
2023/03/12 17:27:58;;;;;;;9.10;3.90;;;;;;;2.46;65.04;99401.10;219104;1260;139148;-68
2023/03/12 17:33:09;;;;;;;7.10;3.30;;;;;;;2.31;65.23;99394.67;219117;1260;139719;-68
2023/03/12 17:38:13;;;;;;;11.40;4.70;;;;;;;2.23;65.38;99390.23;217614;1257;140117;-68
2023/03/12 17:43:16;;;;;;;8.30;5.30;;;;;;;2.20;66.00;99397.36;219912;1256;139379;-70
2023/03/12 17:48:19;;;;;;;14.70;6.50;;;;;;;2.20;66.30;99408.33;220153;1260;139724;-69
2023/03/12 17:53:21;;;;;;;11.90;5.20;;;;;;;2.23;66.50;99408.27;219118;1257;141528;-69
2023/03/12 17:58:23;;;;;;;20.50;9.00;;;;;;;2.22;66.33;99414.17;220411;1257;139941;-69
2023/03/12 18:03:27;;;;;;;19.00;9.70;;;;;;;2.22;66.73;99419.91;218748;1260;139893;-68
2023/03/12 18:08:30;;;;;;;15.10;9.00;;;;;;;2.24;66.90;99428.35;219839;1256;140832;-69
2023/03/12 18:13:32;;;;;;;9.90;8.50;;;;;;;2.27;66.93;99436.60;219066;1260;139421;-68
2023/03/12 18:18:35;;;;;;;16.30;7.60;;;;;;;2.24;67.12;99432.20;218955;1257;139988;-68
2023/03/12 18:23:38;;;;;;;14.60;6.90;;;;;;;2.16;67.25;99418.13;217698;1260;140437;-69
2023/03/12 18:28:42;;;;;;;15.50;7.50;;;;;;;2.07;67.25;99411.70;217905;1260;139536;-68
2023/03/12 18:33:47;;;;;;;16.00;8.10;;;;;;;2.03;67.47;99418.14;218406;1257;139934;-68
2023/03/12 18:38:51;;;;;;;21.00;9.60;;;;;;;2.01;67.44;99415.36;217845;1260;140401;-67
2023/03/12 18:43:55;;;;;;;20.60;9.50;;;;;;;2.01;67.62;99418.27;217618;1257;140565;-68
2023/03/12 18:49:06;;;;;;;24.10;11.20;;;;;;;2.00;67.80;99414.17;218408;1257;139798;-68
2023/03/12 18:54:11;;;;;;;19.10;12.90;;;;;;;1.99;67.95;99406.96;217463;1261;140419;-68
2023/03/12 18:59:14;;;;;;;18.30;10.00;;;;;;;1.98;68.22;99396.75;217540;1258;139885;-68
2023/03/12 19:04:18;;;;;;;15.00;9.30;;;;;;;1.96;68.34;99394.61;217802;1257;140499;-68
2023/03/12 19:09:20;;;;;;;16.00;9.60;;;;;;;1.94;68.35;99395.39;219062;1259;140867;-68
2023/03/12 19:14:24;;;;;;;15.30;8.80;;;;;;;1.95;68.75;99402.52;218012;1260;139421;-68
2023/03/12 19:19:27;;;;;;;17.00;10.10;;;;;;;1.96;68.59;99402.73;218507;1260;140326;-68
2023/03/12 19:24:30;;;;;;;17.30;9.90;;;;;;;1.97;69.14;99394.92;217589;1257;141100;-69
2023/03/12 19:29:33;;;;;;;22.10;10.50;;;;;;;1.95;68.96;99389.57;220187;1260;141092;-69
2023/03/12 19:34:35;;;;;;;22.10;11.70;;;;;;;1.95;69.36;99383.55;218680;1257;141102;-70
2023/03/12 19:39:39;;;;;;;26.40;12.10;;;;;;;1.99;69.46;99381.56;220274;1257;140598;-69
2023/03/12 19:44:44;;;;;;;20.10;10.70;;;;;;;2.01;69.34;99379.70;219449;1257;140142;-69
2023/03/12 19:49:47;;;;;;;15.80;8.80;;;;;;;2.02;69.57;99374.88;218880;1257;139645;-71
2023/03/12 19:54:49;;;;;;;16.20;8.00;;;;;;;2.02;69.61;99365.54;220188;1257;139504;-70
2023/03/12 20:00:08;;;;;;;18.60;9.90;;;;;;;2.00;69.60;99365.11;219405;1256;139894;-70
2023/03/12 20:05:13;;;;;;;23.20;12.30;;;;;;;1.95;69.35;99370.04;218447;1257;142177;-67
2023/03/12 20:10:19;;;;;;;;;;;;;;;1.97;69.57;99364.96;218834;1260;140399;-69
2023/03/12 20:15:22;;;;;;;21.70;12.10;;;;;;;1.98;69.88;99359.56;217823;1260;127573;-68
2023/03/12 20:20:25;;;;;;;30.10;14.70;;;;;;;1.97;69.94;99358.33;218989;1257;140009;-70
2023/03/12 20:25:29;;;;;;;43.40;16.00;;;;;;;1.93;69.91;99359.10;218041;1257;140307;-67
2023/03/12 20:30:34;;;;;;;34.60;17.10;;;;;;;1.89;70.02;99357.48;217659;1257;140132;-68
2023/03/12 20:35:37;;;;;;;18.10;10.10;;;;;;;1.88;70.00;99359.86;218297;1257;141639;-69
2023/03/12 20:40:44;;;;;;;24.80;9.50;;;;;;;1.86;70.04;99354.73;218152;1260;139593;-68
2023/03/12 20:45:47;;;;;;;13.10;8.00;;;;;;;1.85;69.97;99341.75;217629;1257;139837;-69
2023/03/12 20:50:50;;;;;;;14.10;8.80;;;;;;;1.84;70.23;99330.52;217852;1257;139954;-67
2023/03/12 20:55:53;;;;;;;15.80;8.00;;;;;;;1.86;70.08;99317.42;218287;1257;153309;-68
2023/03/12 21:00:58;;;;;;;12.90;8.00;;;;;;;1.87;70.09;99310.44;218825;1256;141610;-67
2023/03/12 21:06:02;;;;;;;16.60;8.40;;;;;;;1.89;69.86;99309.73;218220;1257;140943;-66
2023/03/12 21:11:06;;;;;;;14.40;9.10;;;;;;;1.93;69.93;99312.08;218244;1257;140237;-66
2023/03/12 21:16:10;;;;;;;13.90;7.50;;;;;;;1.98;70.02;99308.55;217688;1257;142044;-68
2023/03/12 21:21:13;;;;;;;17.20;7.20;;;;;;;2.01;69.83;99305.95;218586;1260;140933;-70
2023/03/12 21:26:18;;;;;;;10.30;7.10;;;;;;;2.02;69.68;99306.81;217504;1257;140424;-68
2023/03/12 21:31:25;;;;;;;13.30;7.00;;;;;;;2.06;69.75;99309.92;219283;1257;140911;-70
2023/03/12 21:36:28;;;;;;;11.80;6.40;;;;;;;2.12;69.70;99302.65;220330;1256;140921;-71
2023/03/12 21:41:31;;;;;;;11.90;5.50;;;;;;;2.17;69.29;99294.21;220068;1256;140683;-67
2023/03/12 21:46:34;;;;;;;9.10;5.30;;;;;;;2.23;68.97;99300.37;220357;1257;139881;-70
2023/03/12 21:51:39;;;;;;;10.20;5.60;;;;;;;2.29;68.94;99292.29;220332;1257;140845;-70
2023/03/12 21:56:42;;;;;;;9.20;4.90;;;;;;;2.35;68.54;99282.19;217701;1257;140107;-69
2023/03/12 22:01:46;;;;;;;17.60;5.70;;;;;;;2.39;68.42;99283.10;219961;1256;139595;-68
2023/03/12 22:06:50;;;;;;;9.20;5.60;;;;;;;2.43;68.38;99288.17;218913;1256;140495;-67
2023/03/12 22:11:53;;;;;;;14.00;4.60;;;;;;;2.47;68.43;99294.77;219114;1256;139288;-67
2023/03/12 22:16:58;;;;;;;11.00;6.70;;;;;;;2.49;68.36;99295.48;217791;1257;141101;-67
2023/03/12 22:22:01;;;;;;;13.80;5.60;;;;;;;2.51;68.48;99292.39;218238;1260;139509;-67
2023/03/12 22:27:06;;;;;;;14.40;5.70;;;;;;;2.50;68.57;99279.70;217793;1257;140328;-67
2023/03/12 22:32:09;;;;;;;14.20;6.20;;;;;;;2.44;68.60;99268.02;219036;1257;235072;-67
2023/03/12 22:37:12;;;;;;;8.00;5.40;;;;;;;2.40;68.79;99265.09;217894;1257;140690;-67
2023/03/12 22:42:15;;;;;;;13.40;6.30;;;;;;;2.37;69.07;99267.09;218010;1256;139869;-67
2023/03/12 22:47:18;;;;;;;10.90;4.50;;;;;;;2.32;69.48;99261.04;218695;1256;140886;-69
2023/03/12 22:52:21;;;;;;;14.80;5.10;;;;;;;2.30;69.66;99262.23;218818;1256;140326;-68
2023/03/12 22:57:23;;;;;;;15.60;6.70;;;;;;;2.28;70.17;99248.98;218609;1256;141187;-67
2023/03/12 23:02:25;;;;;;;16.00;5.10;;;;;;;2.27;70.33;99242.80;218470;1257;142087;-67
2023/03/12 23:07:29;;;;;;;11.10;5.20;;;;;;;2.23;70.58;99237.55;217581;1257;139922;-68
2023/03/12 23:12:32;;;;;;;10.80;5.30;;;;;;;2.14;71.21;99238.95;217695;1260;139698;-66
2023/03/12 23:17:36;;;;;;;6.40;4.20;;;;;;;2.02;71.46;99237.73;218149;1257;140625;-68
2023/03/12 23:22:40;;;;;;;11.40;5.40;;;;;;;1.90;71.95;99230.20;218575;1257;139783;-67
2023/03/12 23:27:43;;;;;;;13.20;6.90;;;;;;;1.79;72.48;99233.94;218469;1257;142477;-66
2023/03/12 23:32:46;;;;;;;6.80;4.90;;;;;;;1.66;73.12;99228.69;217885;1256;140047;-70
2023/03/12 23:37:49;;;;;;;9.30;6.20;;;;;;;1.53;73.56;99230.27;220341;1256;140266;-69